createdAt,value
2022-12-04T00:00:14.783Z,4.1
2022-12-04T00:05:50.833Z,4
2022-12-04T00:11:31.829Z,4
2022-12-04T00:17:09.750Z,4
2022-12-04T00:22:46.753Z,4
2022-12-04T00:28:41.050Z,3.9
2022-12-04T00:34:19.235Z,3.9
2022-12-04T00:40:02.698Z,3.9
2022-12-04T00:45:47.805Z,3.9
2022-12-04T00:51:23.819Z,3.7
2022-12-04T00:57:02.911Z,3.3
2022-12-04T01:02:37.834Z,3.1
2022-12-04T01:08:23.228Z,3.2
2022-12-04T01:14:06.529Z,3.3
2022-12-04T01:19:41.676Z,3.4
2022-12-04T01:25:52.659Z,3.4
2022-12-04T01:31:32.773Z,3.2
2022-12-04T01:37:10.986Z,3.1
2022-12-04T01:42:46.996Z,3
2022-12-04T01:48:49.415Z,2.9
2022-12-04T01:54:21.959Z,2.8
2022-12-04T01:59:57.311Z,2.8
2022-12-04T02:05:33.411Z,2.6
2022-12-04T02:11:10.692Z,2.5
2022-12-04T02:16:48.776Z,2.2
2022-12-04T02:22:33.351Z,2.2
2022-12-04T02:28:08.845Z,2.2
2022-12-04T02:33:46.377Z,2.1
2022-12-04T02:39:34.421Z,2.2
2022-12-04T02:45:09.836Z,2
2022-12-04T02:50:45.087Z,1.9
2022-12-04T02:56:21.839Z,2
2022-12-04T03:01:59.501Z,1.6
2022-12-04T03:07:35.397Z,1.7
2022-12-04T03:13:11.603Z,1.5
2022-12-04T03:18:49.770Z,1.5
2022-12-04T03:24:57.183Z,1.2
2022-12-04T03:30:51.918Z,1
2022-12-04T03:36:28.738Z,1
2022-12-04T03:42:26.768Z,1.1
2022-12-04T03:48:45.109Z,0.9
2022-12-04T03:54:17.716Z,1.1
2022-12-04T04:00:02.724Z,1.1
2022-12-04T04:05:54.262Z,0.9
2022-12-04T04:11:37.058Z,0.8
2022-12-04T04:17:12.206Z,0.7
2022-12-04T04:22:56.260Z,0.5
2022-12-04T04:28:45.719Z,0.4
2022-12-04T04:34:22.769Z,0.3
2022-12-04T04:40:01.060Z,0.2
2022-12-04T04:45:35.912Z,0.3
2022-12-04T04:51:13.825Z,0.1
2022-12-04T04:56:48.689Z,0.1
2022-12-04T05:02:23.923Z,0.1
2022-12-04T05:08:39.548Z,-0.1
2022-12-04T05:14:43.626Z,-0.3
2022-12-04T05:20:18.761Z,-0.3
2022-12-04T05:26:19.748Z,-0.2
2022-12-04T05:32:11.505Z,-0.3
2022-12-04T05:37:51.150Z,-0.4
2022-12-04T05:43:31.534Z,-0.3
2022-12-04T05:49:28.012Z,-0.3
2022-12-04T05:55:00.882Z,-0.4
2022-12-04T06:00:45.433Z,-0.6
2022-12-04T06:06:27.434Z,-0.6
2022-12-04T06:12:02.441Z,-0.2
2022-12-04T06:17:45.499Z,-0.2
2022-12-04T06:23:29.792Z,-0.1
2022-12-04T06:29:16.686Z,0.2
2022-12-04T06:35:07.530Z,0.3
2022-12-04T06:40:42.954Z,0.1
2022-12-04T06:46:54.763Z,0.1
2022-12-04T06:52:27.846Z,0.2
2022-12-04T06:58:02.962Z,0.3
2022-12-04T07:03:37.888Z,0.1
2022-12-04T07:09:12.758Z,0.3
2022-12-04T07:14:47.947Z,0.3
2022-12-04T07:20:23.534Z,0.2
2022-12-04T07:25:58.325Z,0.2
2022-12-04T07:32:18.396Z,0.4
2022-12-04T07:38:00.232Z,0.5
2022-12-04T07:43:52.100Z,0.9
2022-12-04T07:49:39.600Z,1.1
2022-12-04T07:55:18.841Z,1.4
2022-12-04T08:00:58.936Z,1.7
2022-12-04T08:07:08.516Z,1.7
2022-12-04T08:12:46.490Z,1.8
2022-12-04T08:18:22.228Z,2.6
2022-12-04T08:24:05.153Z,3.3
2022-12-04T08:29:47.776Z,3.5
2022-12-04T08:35:32.991Z,3.3
2022-12-04T08:41:37.776Z,4.2
2022-12-04T08:47:13.146Z,4.4
2022-12-04T08:52:51.460Z,4.8
2022-12-04T08:58:42.198Z,4.9
2022-12-04T09:04:21.498Z,5.6
2022-12-04T09:09:58.638Z,6.1
2022-12-04T09:16:22.545Z,6.2
2022-12-04T09:22:09.899Z,6.6
2022-12-04T09:27:52.941Z,7
2022-12-04T09:34:11.501Z,6.7
2022-12-04T09:39:53.795Z,7.4
2022-12-04T09:45:32.093Z,8
2022-12-04T09:51:27.996Z,8.4
2022-12-04T09:57:03.201Z,8.2
2022-12-04T10:02:51.423Z,8.3
2022-12-04T10:08:28.382Z,8.2
2022-12-04T10:14:07.816Z,8.3
2022-12-04T10:19:58.194Z,8.2
2022-12-04T10:25:45.170Z,8.4
2022-12-04T10:31:29.950Z,8.6
2022-12-04T10:37:38.459Z,8.7
2022-12-04T10:43:14.309Z,8.6
2022-12-04T10:48:53.193Z,9
2022-12-04T10:54:34.838Z,9.1
2022-12-04T11:00:19.682Z,9.5
2022-12-04T11:06:03.731Z,9.9
2022-12-04T11:11:56.858Z,10.4
2022-12-04T11:17:42.525Z,10.7
2022-12-04T11:23:17.919Z,10.9
2022-12-04T11:28:53.292Z,12.1
2022-12-04T11:34:34.026Z,13.8
2022-12-04T11:40:16.738Z,16.3
2022-12-04T11:45:52.598Z,17
2022-12-04T11:51:27.475Z,17.3
2022-12-04T11:57:11.884Z,18.4
2022-12-04T12:02:58.302Z,17.6
2022-12-04T12:08:55.701Z,19.3
2022-12-04T12:14:32.158Z,19.6
2022-12-04T12:20:16.599Z,19.9
2022-12-04T12:25:53.031Z,19.4
2022-12-04T12:31:28.609Z,19
2022-12-04T12:37:05.676Z,21.4
2022-12-04T12:42:41.057Z,21.6
2022-12-04T12:48:39.383Z,22.7
2022-12-04T12:54:13.595Z,22.8
2022-12-04T12:59:49.838Z,23.1
2022-12-04T13:05:25.317Z,23.8
2022-12-04T13:11:00.337Z,23.8
2022-12-04T13:16:44.030Z,25.3
2022-12-04T13:22:54.346Z,24.4
2022-12-04T13:28:41.811Z,25.4
2022-12-04T13:34:19.153Z,25.7
2022-12-04T13:40:03.837Z,25.1
2022-12-04T13:46:00.098Z,24.8
2022-12-04T13:51:36.914Z,25.5
2022-12-04T13:57:17.637Z,26.2
2022-12-04T14:02:54.339Z,25.9
2022-12-04T14:08:33.076Z,26.7
2022-12-04T14:14:19.972Z,23.9
2022-12-04T14:20:07.948Z,14.4
2022-12-04T14:25:45.110Z,12.2
2022-12-04T14:32:46.476Z,10.6
2022-12-04T14:38:42.035Z,9.6
2022-12-04T14:44:37.512Z,9.3
2022-12-04T14:50:15.589Z,9.1
2022-12-04T14:56:07.207Z,9
2022-12-04T15:01:57.974Z,8.8
2022-12-04T15:07:39.422Z,8.4
2022-12-04T15:13:21.335Z,8.2
2022-12-04T15:19:05.163Z,8.1
2022-12-04T15:24:49.844Z,7.8
2022-12-04T15:30:30.625Z,7.5
2022-12-04T15:36:05.407Z,7.5
2022-12-04T15:42:04.058Z,7.2
2022-12-04T15:48:09.020Z,6.8
2022-12-04T15:53:41.520Z,7.1
2022-12-04T15:59:16.719Z,7
2022-12-04T16:04:56.936Z,6.8
2022-12-04T16:10:34.731Z,7.2
2022-12-04T16:16:09.627Z,6.7
2022-12-04T16:21:46.256Z,6.1
2022-12-04T16:27:23.824Z,6.4
2022-12-04T16:32:58.884Z,6.3
2022-12-04T16:38:35.437Z,6.2
2022-12-04T16:44:10.660Z,6.1
2022-12-04T16:49:50.808Z,5.8
2022-12-04T16:55:26.029Z,5.6
2022-12-04T17:01:01.316Z,5.2
2022-12-04T17:06:43.359Z,4.7
2022-12-04T17:12:18.988Z,4.5
2022-12-04T17:18:39.482Z,4.6
2022-12-04T17:24:24.752Z,4.1
2022-12-04T17:30:02.810Z,4
2022-12-04T17:35:54.921Z,4.2
2022-12-04T17:41:39.159Z,3.9
2022-12-04T17:47:39.813Z,3.8
2022-12-04T17:53:12.606Z,3.8
2022-12-04T17:58:55.056Z,3.9
2022-12-04T18:04:31.121Z,3.7
2022-12-04T18:10:08.824Z,3.2
2022-12-04T18:15:54.582Z,3.2
2022-12-04T18:21:56.198Z,3.4
2022-12-04T18:27:37.770Z,3.2
2022-12-04T18:33:19.026Z,3.1
2022-12-04T18:39:15.517Z,3.2
2022-12-04T18:44:50.871Z,3
2022-12-04T18:50:26.123Z,3
2022-12-04T18:56:28.927Z,3.3
2022-12-04T19:02:06.980Z,2.7
2022-12-04T19:07:43.727Z,2.2
2022-12-04T19:13:19.993Z,2.1
2022-12-04T19:18:55.563Z,2.2
2022-12-04T19:24:30.565Z,2.2
2022-12-04T19:30:05.479Z,2.3
2022-12-04T19:35:40.710Z,2.3
2022-12-04T19:41:15.775Z,2.2
2022-12-04T19:46:50.927Z,1.9
2022-12-04T19:52:26.619Z,1.8
2022-12-04T19:58:05.871Z,1.8
2022-12-04T20:03:41.300Z,1.9
2022-12-04T20:09:23.980Z,1.5
2022-12-04T20:15:04.402Z,1.5
2022-12-04T20:20:43.916Z,1.7
2022-12-04T20:26:18.987Z,1.8
2022-12-04T20:31:54.267Z,1.5
2022-12-04T20:37:29.809Z,1.5
2022-12-04T20:43:05.512Z,1.4
2022-12-04T20:49:02.870Z,1.4
2022-12-04T20:54:41.187Z,1.1
2022-12-04T21:00:26.123Z,1.2
2022-12-04T21:07:09.473Z,0.9
2022-12-04T21:12:48.758Z,1.1
2022-12-04T21:18:24.459Z,1.3
2022-12-04T21:23:59.237Z,1
2022-12-04T21:29:36.083Z,0.8
2022-12-04T21:35:20.487Z,0.6
2022-12-04T21:40:57.913Z,1
2022-12-04T21:46:55.201Z,0.8
2022-12-04T21:52:31.822Z,0.8
2022-12-04T21:58:27.551Z,0.5
2022-12-04T22:04:03.231Z,0.5
2022-12-04T22:09:42.380Z,0.2
2022-12-04T22:15:20.243Z,0.2
2022-12-04T22:20:55.469Z,0.3
2022-12-04T22:26:31.208Z,0.2
2022-12-04T22:32:09.123Z,0.1
2022-12-04T22:37:44.882Z,0.1
2022-12-04T22:43:36.378Z,0.2
2022-12-04T22:49:37.776Z,0.7
2022-12-04T22:55:10.767Z,0.6
2022-12-04T23:00:45.885Z,0.3
2022-12-04T23:06:21.928Z,0.7
2022-12-04T23:11:57.028Z,0.3
2022-12-04T23:17:32.569Z,0.1
2022-12-04T23:23:09.026Z,0
2022-12-04T23:29:13.620Z,0
2022-12-04T23:35:33.359Z,0.1
2022-12-04T23:41:10.787Z,-0.3
2022-12-04T23:47:24.925Z,-0.2
2022-12-04T23:52:57.916Z,-0.4
2022-12-04T23:58:43.027Z,-0.2
